createdAt,value
2018-02-27T05:31:38.279Z,1.35
2018-02-27T05:34:06.522Z,0.68
2018-02-27T05:36:35.544Z,2.45
2018-02-27T05:39:03.887Z,2.03
2018-02-27T05:41:32.093Z,1.60
2018-02-27T05:44:00.314Z,1.85
2018-02-27T05:46:28.558Z,2.03
2018-02-27T05:48:56.891Z,2.22
2018-02-27T05:51:25.170Z,3.10
2018-02-27T05:53:53.348Z,2.70
2018-02-27T05:56:22.361Z,2.45
2018-02-27T05:58:51.349Z,2.00
2018-02-27T06:01:20.360Z,2.62
2018-02-27T06:03:48.613Z,1.90
2018-02-27T06:06:18.525Z,2.75
2018-02-27T06:08:47.539Z,1.75
2018-02-27T06:11:16.513Z,2.25
2018-02-27T06:13:45.524Z,1.83
2018-02-27T06:16:13.751Z,3.40
2018-02-27T06:18:41.994Z,2.72
2018-02-27T06:21:10.224Z,1.98
2018-02-27T06:23:38.449Z,1.50
2018-02-27T06:26:06.703Z,2.00
2018-02-27T06:28:35.717Z,2.70
2018-02-27T06:31:03.933Z,3.33
2018-02-27T06:33:32.180Z,2.87
2018-02-27T06:36:00.398Z,2.65
2018-02-27T06:38:28.642Z,2.67
2018-02-27T06:40:56.895Z,3.92
2018-02-27T06:43:25.128Z,3.15
2018-02-27T06:45:53.372Z,1.90
2018-02-27T06:48:21.620Z,2.15
2018-02-27T06:50:49.853Z,3.10
2018-02-27T06:53:18.076Z,2.87
2018-02-27T06:55:46.408Z,3.40
2018-02-27T06:58:14.625Z,3.00
2018-02-27T07:00:42.844Z,1.87
2018-02-27T07:03:11.081Z,3.10
2018-02-27T07:05:39.296Z,3.70
2018-02-27T07:08:07.556Z,2.60
2018-02-27T07:10:35.781Z,3.08
2018-02-27T07:13:04.242Z,2.80
2018-02-27T07:15:32.485Z,4.30
2018-02-27T07:18:00.693Z,2.95
2018-02-27T07:20:28.971Z,2.75
2018-02-27T07:22:57.170Z,2.40
2018-02-27T07:25:26.173Z,2.97
2018-02-27T07:27:54.390Z,1.90
2018-02-27T15:16:25.384Z,4.07
2018-02-27T15:18:53.628Z,5.90
2018-02-27T15:21:22.020Z,4.57
2018-02-27T15:23:50.270Z,5.57
2018-02-27T15:26:18.493Z,5.93
2018-02-27T15:28:47.469Z,4.77
2018-02-27T15:31:15.874Z,4.73
2018-02-27T15:33:44.056Z,5.37
2018-02-27T15:36:13.149Z,6.40
2018-02-27T15:38:41.369Z,5.60
2018-02-27T15:41:10.553Z,4.63
2018-02-27T15:43:39.110Z,4.60
2018-02-27T15:46:08.388Z,4.97
2018-02-27T15:48:36.603Z,5.37
2018-02-27T15:51:04.957Z,5.07
2018-02-27T15:53:33.138Z,5.90
2018-02-27T15:56:02.188Z,5.60
2018-02-27T15:58:30.415Z,5.63
2018-02-27T16:00:59.429Z,4.00
2018-02-27T16:03:27.774Z,7.30
2018-02-27T16:05:56.256Z,5.47
2018-02-27T16:08:24.509Z,6.40
2018-02-27T16:10:52.915Z,5.37
2018-02-27T16:13:21.134Z,5.30
2018-02-27T16:15:50.365Z,6.20
2018-02-27T16:18:18.672Z,5.17
2018-02-27T16:20:46.886Z,6.10
2018-02-27T16:23:15.141Z,6.00
2018-02-27T16:25:43.394Z,5.20
2018-02-27T16:28:12.378Z,5.17
2018-02-27T16:30:41.225Z,4.17
2018-02-27T16:33:09.454Z,6.30
2018-02-27T16:35:37.727Z,5.00
2018-02-27T16:38:06.110Z,5.40
2018-02-27T16:40:34.388Z,5.07
2018-02-27T16:43:02.618Z,5.03
2018-02-27T16:45:30.940Z,4.80
2018-02-27T16:47:59.143Z,5.75
2018-02-27T16:50:27.409Z,5.70
2018-02-27T16:52:56.390Z,3.97
2018-02-27T16:55:25.372Z,5.37
2018-02-27T16:57:53.960Z,5.97
2018-02-27T17:00:22.186Z,4.75
2018-02-27T17:02:51.213Z,5.43
2018-02-27T17:05:20.249Z,6.00
2018-02-27T17:07:48.465Z,5.20
2018-02-27T17:10:17.523Z,4.75
2018-02-27T17:12:45.771Z,5.07
2018-02-27T17:15:14.561Z,4.70
2018-02-27T17:17:42.805Z,4.85
2018-02-27T17:20:11.041Z,6.10
2018-02-27T17:22:39.261Z,7.10
2018-02-27T17:25:07.501Z,6.12
2018-02-27T17:27:35.725Z,6.00
2018-02-27T17:30:04.020Z,5.95
2018-02-27T17:32:32.535Z,5.53
2018-02-27T17:35:00.768Z,6.53
2018-02-27T17:37:29.358Z,5.30
2018-02-27T17:39:57.573Z,5.85
2018-02-27T17:42:25.913Z,6.10
2018-02-27T17:44:54.130Z,5.40
2018-02-27T17:47:22.344Z,5.32
2018-02-27T17:49:50.573Z,4.70
2018-02-27T17:52:18.797Z,4.93
2018-02-27T17:54:47.033Z,5.62
2018-02-27T17:57:17.257Z,6.32
2018-02-27T17:59:45.936Z,5.90
2018-02-27T18:02:15.029Z,4.93
2018-02-27T18:04:46.379Z,5.40
2018-02-27T18:07:14.824Z,5.45
2018-02-27T18:09:43.845Z,5.20
2018-02-27T18:12:12.070Z,5.90
2018-02-27T18:14:42.110Z,6.07
2018-02-27T18:17:10.593Z,6.97
2018-02-27T18:19:40.525Z,6.40
2018-02-27T18:22:08.803Z,6.03
2018-02-27T18:24:37.813Z,5.80
2018-02-27T18:27:07.061Z,5.18
2018-02-27T18:29:35.565Z,5.85
2018-02-27T18:32:05.720Z,4.53
2018-02-27T18:34:34.710Z,5.97
2018-02-27T18:37:03.156Z,5.10
2018-02-27T18:39:31.351Z,5.22
2018-02-27T18:41:59.641Z,5.35
2018-02-27T18:44:28.018Z,6.22
2018-02-27T18:46:56.367Z,5.20
2018-02-27T18:49:25.612Z,5.82
2018-02-27T18:51:53.865Z,6.82
2018-02-27T18:54:22.081Z,5.80
2018-02-27T18:56:50.661Z,4.40
2018-02-27T18:59:19.136Z,5.15
2018-02-27T19:01:47.586Z,6.07
2018-02-27T19:04:16.605Z,5.15
2018-02-27T19:06:44.841Z,4.90
2018-02-27T19:09:13.929Z,4.78
2018-02-27T19:11:42.149Z,6.70
2018-02-27T19:14:10.392Z,6.15
2018-02-27T19:16:39.386Z,6.50
2018-02-27T19:19:08.409Z,6.37
2018-02-27T19:21:36.746Z,8.55
2018-02-27T19:24:04.932Z,4.90
2018-02-27T19:26:33.948Z,5.03
2018-02-27T19:29:02.168Z,5.57
2018-02-27T19:31:30.569Z,5.62
2018-02-27T19:33:58.870Z,6.18
2018-02-27T19:36:27.957Z,6.75
2018-02-27T19:38:56.946Z,6.47
2018-02-27T19:41:25.965Z,8.35
2018-02-27T19:43:54.214Z,5.60
2018-02-27T19:46:23.302Z,6.10
2018-02-27T19:48:51.638Z,5.15
2018-02-27T19:51:19.846Z,6.12
2018-02-27T19:53:48.089Z,6.32
2018-02-27T19:56:16.317Z,7.05
2018-02-27T19:58:45.439Z,7.07
2018-02-27T20:01:14.326Z,5.18
2018-02-27T20:03:42.642Z,6.53
2018-02-27T20:06:10.881Z,6.07
2018-02-27T20:08:39.885Z,5.60
2018-02-27T20:11:08.307Z,6.32
2018-02-27T20:13:36.599Z,6.05
2018-02-27T20:16:04.805Z,6.85
2018-02-27T20:18:33.053Z,6.47
2018-02-27T20:21:02.062Z,7.90
2018-02-27T20:23:36.661Z,10.23
2018-02-27T20:26:04.918Z,6.50
2018-02-27T20:28:38.745Z,7.40
2018-02-27T20:33:28.812Z,7.32
2018-02-27T20:35:57.137Z,5.72
2018-02-27T20:38:31.143Z,5.25
2018-02-27T20:40:59.337Z,6.53
2018-02-27T20:43:28.353Z,6.90
2018-02-27T20:45:56.691Z,6.62
2018-02-27T20:48:25.772Z,6.18
2018-02-27T20:50:54.038Z,7.95
2018-02-27T20:53:22.341Z,6.30
2018-02-27T20:55:50.615Z,8.07
2018-02-27T20:58:18.837Z,6.60
2018-02-27T21:00:47.062Z,5.97
2018-02-27T21:03:15.349Z,7.18
2018-02-27T21:05:43.603Z,5.50
2018-02-27T21:08:11.901Z,6.75
2018-02-27T21:10:40.134Z,5.62
2018-02-27T21:13:08.369Z,5.82
2018-02-27T21:15:37.384Z,5.25
2018-02-27T21:18:05.637Z,5.53
2018-02-27T21:20:33.905Z,6.47
2018-02-27T21:23:02.926Z,6.85
2018-02-27T21:25:31.269Z,5.07
2018-02-27T21:27:59.461Z,6.28
2018-02-27T21:30:28.525Z,7.00
2018-02-27T21:32:56.733Z,6.85
2018-02-27T21:35:25.725Z,5.95
2018-02-27T21:37:54.989Z,6.47
2018-02-27T21:40:23.245Z,6.82
2018-02-27T21:42:51.486Z,7.50
2018-02-27T21:45:19.837Z,16.40
2018-02-27T21:47:48.050Z,10.73
2018-02-27T21:50:16.288Z,10.73
2018-02-27T21:52:44.552Z,9.35
2018-02-27T21:55:12.779Z,12.50
2018-02-27T21:57:41.018Z,7.57
2018-02-27T22:00:09.333Z,7.90
2018-02-27T22:02:37.623Z,7.22
2018-02-27T22:05:05.837Z,8.20
2018-02-27T22:07:34.061Z,7.10
2018-02-27T22:10:02.290Z,6.65
2018-02-27T22:12:30.546Z,7.00
2018-02-27T22:14:58.772Z,6.65
2018-02-27T22:17:27.128Z,6.12
2018-02-27T22:19:55.365Z,6.12
2018-02-27T22:22:23.682Z,9.75
2018-02-27T22:24:52.297Z,11.40
2018-02-27T22:27:20.567Z,10.80
2018-02-27T22:29:48.794Z,9.35
2018-02-27T22:32:17.033Z,7.03
2018-02-27T22:34:45.341Z,16.45
2018-02-27T22:37:13.597Z,9.85
2018-02-27T22:39:43.931Z,7.95
2018-02-27T22:42:12.864Z,9.93
2018-02-27T22:44:41.057Z,8.27
2018-02-27T22:47:10.861Z,7.28
2018-02-27T22:49:39.877Z,5.50
2018-02-27T22:52:08.106Z,8.18
2018-02-27T22:54:36.361Z,8.27
2018-02-27T22:57:05.391Z,7.10
2018-02-27T22:59:33.620Z,7.00
2018-02-27T23:02:01.946Z,8.18
2018-02-27T23:04:30.258Z,6.93
2018-02-27T23:06:58.489Z,5.45
2018-02-27T23:09:26.738Z,7.18
2018-02-27T23:11:54.961Z,5.32
2018-02-27T23:14:23.981Z,8.18
2018-02-27T23:16:52.229Z,7.72
2018-02-27T23:19:21.258Z,8.25
2018-02-27T23:21:49.521Z,7.80
2018-02-27T23:24:18.666Z,8.75
2018-02-27T23:26:46.952Z,8.40
2018-02-27T23:29:15.552Z,7.75
2018-02-27T23:31:45.854Z,7.20
2018-02-27T23:34:16.676Z,8.95
2018-02-27T23:36:44.899Z,5.53
2018-02-27T23:39:14.049Z,5.85
2018-02-27T23:41:42.300Z,6.53
2018-02-27T23:44:10.555Z,8.48
